KOKV

Details ICAO KOKV
Name WINCHESTER RGNL
Region United States
Timezone America/New_York (UTC-5.0)
Plans Departing 13
Arriving 13
Stats Elevation 727 ft / 222 m (AMSL)
Location 39.143527° -78.144455°
Runways 1
Magnetic Variation 10.215° W
Sunrise 2017-12-15 12:26:17 UTC / 2017-12-15 07:26:17 Local
Sunset 2017-12-15 21:52:11 UTC / 2017-12-15 16:52:11 Local
Advertisement - Login to hide

Runways

ID Width Length Bearing (true) Bearing (mag) Surface Threshold Offset Overrun Length
14 98 ft / 30 m 5,500 ft / 1,677 m 133.85° 144.07° Asphalt 171 ft / 52 m 0 ft / 0 m
32 98 ft / 30 m 5,500 ft / 1,677 m 313.86° 324.08° Asphalt 177 ft / 54 m 0 ft / 0 m

Approach Navaids

Runway Type Ident Frequency Range Bearing (true) Bearing (mag) Slope Elevation
32 Localiser ITZX 109.55 MHz 18 nm / 33 km 313.87° 324.08° - 727 ft / 222 m (AMSL)
32 Glidescope ITZX 109.55 MHz 10 nm / 19 km 313.85° 324.07° 3.00° 698 ft / 213 m (AMSL)
32 DME ITZX 109.55 MHz 18 nm / 33 km - - - 727 ft / 222 m (AMSL)

Map

Weather


0- 5 10 15 20 25 30 35+ Temperature / ° C

Clouds and Precipitation
Forecast for 2017-12-15 06:00 UTC. Updated 2 hours ago

Ground ~20,000 ft ~40,000 ft Winds

METAR

KOKV 150635Z AUTO 00000KT 10SM CLR M05/M10 A3008 RMK AO2

TAF

Not found

Frequencies

Recorded 124.85 MHz AWOS 3
Clearance 126.15 MHz POTOMAC CLNC DEL
Unicom 122.70 MHz CTAF/UNICOM
Approach 120.45 MHz POTOMAC APP/DEP
Warning: Do not use this data for real-world aviation or navigation. No guarantee of current accuracy is given.